Time;durP1;ratioP1;P1;durP2;ratioP2;P2;SDS_P1;SDS_P2;PMS_P1;PMS_P2;Temp;Humidity;BMP_temperature;BMP_pressure;BME280_temperature;BME280_humidity;BME280_pressure;Samples;Min_cycle;Max_cycle;Signal;HPM_P1;HPM_P2
2022/10/27 00:01:41;;;;;;;7.85;2.90;;;;;;;11.34;100.00;99990.03;5174533;27;20046;-49
2022/10/27 00:04:07;;;;;;;7.18;2.15;;;;;;;11.21;100.00;99994.75;5174496;27;20050;-50
2022/10/27 00:06:33;;;;;;;6.22;2.28;;;;;;;11.36;100.00;99995.16;5174331;27;20056;-48
2022/10/27 00:09:00;;;;;;;7.45;2.20;;;;;;;11.32;100.00;99993.09;5174326;27;20047;-48
2022/10/27 00:11:26;;;;;;;5.82;2.00;;;;;;;11.35;100.00;100002.59;5174229;27;20046;-50
2022/10/27 00:13:53;;;;;;;5.88;2.33;;;;;;;11.39;100.00;100008.19;5174256;27;20459;-50
2022/10/27 00:16:19;;;;;;;4.03;2.10;;;;;;;11.21;100.00;100000.25;5174310;27;20523;-48
2022/10/27 00:18:46;;;;;;;3.28;2.00;;;;;;;11.38;100.00;100003.84;5173995;27;20050;-48
2022/10/27 00:21:14;;;;;;;8.07;2.03;;;;;;;11.13;100.00;100003.13;5174555;27;20050;-48
2022/10/27 00:23:41;;;;;;;5.15;2.28;;;;;;;11.37;100.00;100005.78;5174264;27;20050;-51
2022/10/27 00:26:10;;;;;;;4.28;1.75;;;;;;;11.30;100.00;100003.66;5174180;27;20571;-48
2022/10/27 00:28:37;;;;;;;4.07;1.98;;;;;;;11.30;100.00;100006.41;5174014;27;20050;-48
2022/10/27 00:31:06;;;;;;;4.63;1.77;;;;;;;11.24;100.00;99996.00;5173824;27;20046;-50
2022/10/27 00:33:33;;;;;;;4.57;1.70;;;;;;;11.22;100.00;100012.81;5173807;27;20042;-49
2022/10/27 00:36:03;;;;;;;3.10;2.10;;;;;;;11.36;100.00;100009.66;5173898;27;20057;-49
2022/10/27 00:38:29;;;;;;;5.22;2.65;;;;;;;11.44;100.00;100016.97;5173707;27;20050;-50
2022/10/27 00:40:55;;;;;;;7.22;2.10;;;;;;;11.38;100.00;100017.56;5173729;27;20067;-52
2022/10/27 00:43:27;;;;;;;5.20;1.83;;;;;;;11.33;100.00;100015.88;5173644;27;20050;-52
2022/10/27 00:45:59;;;;;;;3.67;1.90;;;;;;;11.35;100.00;100018.25;5173559;27;20060;-48
2022/10/27 00:48:29;;;;;;;3.35;1.70;;;;;;;11.18;100.00;100022.09;5173547;27;20054;-48
2022/10/27 00:50:57;;;;;;;5.75;1.98;;;;;;;11.26;100.00;100026.63;5173417;27;20093;-48
2022/10/27 00:53:24;;;;;;;3.70;1.73;;;;;;;11.38;100.00;100023.84;5173716;27;20049;-49
2022/10/27 00:55:50;;;;;;;3.92;1.92;;;;;;;11.41;100.00;100016.88;5173355;27;20516;-48
2022/10/27 00:58:19;;;;;;;7.32;2.72;;;;;;;11.23;100.00;100025.41;5173608;27;20050;-49
2022/10/27 01:00:45;;;;;;;3.15;1.80;;;;;;;11.22;100.00;100029.28;5173514;27;20046;-48
2022/10/27 01:03:15;;;;;;;5.07;2.33;;;;;;;11.25;100.00;100025.84;5173430;27;20053;-47
2022/10/27 01:05:43;;;;;;;4.78;2.30;;;;;;;11.18;100.00;100022.91;5173336;27;20057;-48
2022/10/27 01:08:09;;;;;;;4.25;2.15;;;;;;;11.26;100.00;100027.47;5173322;27;20046;-48
2022/10/27 01:10:35;;;;;;;7.22;3.10;;;;;;;11.25;100.00;100022.31;5173291;27;20050;-49
2022/10/27 01:13:01;;;;;;;9.27;2.83;;;;;;;11.44;100.00;100021.66;5173442;27;20089;-49
2022/10/27 01:15:37;;;;;;;4.88;2.45;;;;;;;11.42;100.00;100032.19;5173565;27;20045;-47
2022/10/27 01:18:13;;;;;;;7.88;2.78;;;;;;;11.45;100.00;100031.50;5173023;27;20097;-48
2022/10/27 01:21:17;;;;;;;10.70;3.60;;;;;;;11.28;100.00;100027.09;5172984;27;20073;-47
2022/10/27 01:24:00;;;;;;;8.73;3.80;;;;;;;11.17;100.00;100017.75;5088277;28;20105;-48
2022/10/27 01:26:47;;;;;;;3.50;2.90;;;;;;;11.22;100.00;100014.75;5162199;27;20053;-49
2022/10/27 01:29:59;;;;;;;9.18;2.88;;;;;;;11.35;100.00;100004.53;5172932;27;20043;-47
2022/10/27 01:32:34;;;;;;;13.65;3.88;;;;;;;11.24;100.00;100015.22;5172910;27;20050;-49
2022/10/27 01:35:06;;;;;;;10.65;3.55;;;;;;;11.18;100.00;99994.66;5172883;27;20061;-49
2022/10/27 01:37:38;;;;;;;8.10;3.40;;;;;;;11.40;100.00;99979.59;5172782;27;20054;-48
2022/10/27 01:40:10;;;;;;;7.78;3.90;;;;;;;11.30;100.00;99983.63;5172564;27;20046;-49
2022/10/27 01:42:42;;;;;;;5.45;3.65;;;;;;;11.25;100.00;99987.41;5172564;27;20042;-50
2022/10/27 01:45:11;;;;;;;7.32;3.72;;;;;;;11.25;100.00;99981.91;5172787;27;20052;-50
2022/10/27 01:47:39;;;;;;;6.47;3.30;;;;;;;11.32;100.00;99986.81;5172860;27;20061;-48
2022/10/27 01:50:07;;;;;;;8.07;3.40;;;;;;;10.80;100.00;99969.28;5172814;27;20046;-47
2022/10/27 01:52:45;;;;;;;11.60;3.83;;;;;;;11.14;100.00;99942.41;5172822;27;20504;-49
2022/10/27 01:55:37;;;;;;;12.73;3.97;;;;;;;11.30;100.00;99937.78;5172512;27;20050;-49
2022/10/27 01:58:35;;;;;;;6.95;3.50;;;;;;;11.04;100.00;99943.72;5172634;27;20559;-48
2022/10/27 02:01:13;;;;;;;8.05;3.38;;;;;;;10.98;100.00;99955.28;5099648;27;20523;-49
2022/10/27 02:03:46;;;;;;;8.52;3.50;;;;;;;11.06;100.00;99943.34;5172299;27;20046;-48
2022/10/27 02:06:20;;;;;;;6.05;3.50;;;;;;;11.18;100.00;99946.06;5172457;27;20160;-48
2022/10/27 02:08:54;;;;;;;11.43;3.63;;;;;;;11.03;100.00;99944.88;5172396;27;20082;-50
2022/10/27 02:11:20;;;;;;;14.88;4.97;;;;;;;11.15;100.00;99946.75;5172210;27;20077;-47
2022/10/27 02:13:47;;;;;;;13.45;5.50;;;;;;;11.08;100.00;99955.56;5172147;27;20153;-52
2022/10/27 02:16:20;;;;;;;10.35;4.20;;;;;;;11.20;100.00;99951.22;5172365;27;20098;-47
2022/10/27 02:18:51;;;;;;;7.17;3.57;;;;;;;11.14;100.00;99966.31;5172400;27;20046;-48
2022/10/27 02:21:21;;;;;;;10.13;3.72;;;;;;;11.11;100.00;99961.53;5172363;27;20553;-50
2022/10/27 02:23:48;;;;;;;8.02;3.45;;;;;;;11.26;100.00;99969.00;5172170;27;20142;-50
2022/10/27 02:26:20;;;;;;;11.90;3.83;;;;;;;11.22;100.00;99982.63;5172089;27;20085;-49
2022/10/27 02:28:51;;;;;;;9.85;4.25;;;;;;;11.10;100.00;99995.59;5172067;27;20109;-50
2022/10/27 02:31:21;;;;;;;8.00;3.38;;;;;;;11.31;100.00;99988.75;5172077;27;20050;-50
2022/10/27 02:33:50;;;;;;;11.10;4.00;;;;;;;11.06;100.00;99976.28;5174158;27;20424;-50
2022/10/27 02:36:16;;;;;;;9.63;3.70;;;;;;;11.10;100.00;99965.44;5175557;27;20090;-47
2022/10/27 02:38:42;;;;;;;5.00;3.55;;;;;;;11.07;100.00;99955.94;5175642;27;20050;-48
2022/10/27 02:41:09;;;;;;;7.15;3.90;;;;;;;11.03;100.00;99944.06;5175671;27;20060;-49
2022/10/27 02:43:35;;;;;;;14.75;4.65;;;;;;;11.08;100.00;99927.34;5175610;27;20050;-50
2022/10/27 02:46:01;;;;;;;8.02;3.83;;;;;;;10.93;100.00;99930.81;5175592;27;20533;-48
2022/10/27 02:48:27;;;;;;;7.72;4.03;;;;;;;10.96;100.00;99897.19;5175538;27;20090;-48
2022/10/27 02:50:54;;;;;;;8.23;4.25;;;;;;;11.01;100.00;99902.44;5175726;27;20050;-50
2022/10/27 02:53:21;;;;;;;8.48;3.72;;;;;;;10.94;100.00;99903.06;5175590;27;20450;-49
2022/10/27 02:55:47;;;;;;;10.70;3.85;;;;;;;11.05;100.00;99892.38;5175486;27;20482;-48
2022/10/27 02:58:13;;;;;;;9.73;3.92;;;;;;;11.08;100.00;99899.91;5175149;27;20050;-48
2022/10/27 03:00:39;;;;;;;12.52;4.15;;;;;;;11.05;100.00;99917.06;5175520;27;20050;-48
2022/10/27 03:03:05;;;;;;;13.18;3.97;;;;;;;11.03;100.00;99920.16;5175147;27;20058;-49
2022/10/27 03:05:32;;;;;;;6.43;3.80;;;;;;;11.06;100.00;99924.13;5175166;27;20519;-49
2022/10/27 03:07:58;;;;;;;7.25;3.78;;;;;;;11.13;100.00;99929.84;5175429;27;20485;-50
2022/10/27 03:10:25;;;;;;;11.38;3.85;;;;;;;11.03;100.00;99935.84;5175165;27;20046;-48
2022/10/27 03:12:51;;;;;;;10.07;3.97;;;;;;;10.86;100.00;99916.91;5175317;27;20549;-52
2022/10/27 03:15:17;;;;;;;9.82;4.43;;;;;;;11.09;100.00;99909.72;5175361;27;20083;-48
2022/10/27 03:17:44;;;;;;;12.23;4.38;;;;;;;10.54;100.00;99875.66;5175247;27;20050;-48
2022/10/27 03:20:11;;;;;;;7.53;3.70;;;;;;;10.90;100.00;99860.22;5174838;27;20053;-52
2022/10/27 03:22:37;;;;;;;7.97;3.22;;;;;;;10.80;100.00;99873.28;5175301;27;20430;-48
2022/10/27 03:25:05;;;;;;;7.03;3.53;;;;;;;10.93;100.00;99873.22;5174952;27;20081;-48
2022/10/27 03:27:31;;;;;;;9.88;3.60;;;;;;;10.91;100.00;99891.97;5175280;27;20521;-48
2022/10/27 03:29:58;;;;;;;6.85;3.20;;;;;;;10.89;100.00;99891.53;5174815;27;20092;-47
2022/10/27 03:32:24;;;;;;;11.68;3.83;;;;;;;10.90;100.00;99904.09;5175010;27;20137;-49
2022/10/27 03:34:50;;;;;;;8.30;3.53;;;;;;;10.80;100.00;99917.16;5174909;27;20145;-50
2022/10/27 03:37:16;;;;;;;8.60;3.63;;;;;;;10.80;100.00;99910.88;5175112;27;20054;-50
2022/10/27 03:39:43;;;;;;;11.35;3.20;;;;;;;10.61;100.00;99903.28;5174843;27;20078;-49
2022/10/27 03:42:10;;;;;;;6.28;2.90;;;;;;;10.77;100.00;99903.34;5174902;27;20057;-49
2022/10/27 03:44:36;;;;;;;4.40;3.05;;;;;;;10.74;100.00;99906.78;5174331;27;20386;-49
2022/10/27 03:47:02;;;;;;;9.80;3.15;;;;;;;10.67;100.00;99899.16;5174977;27;20050;-48
2022/10/27 03:49:28;;;;;;;5.72;3.03;;;;;;;10.75;100.00;99903.69;5175291;27;20095;-49
2022/10/27 03:51:55;;;;;;;6.78;3.33;;;;;;;10.72;100.00;99909.84;5175049;27;20042;-48
2022/10/27 03:54:21;;;;;;;7.13;3.30;;;;;;;10.82;100.00;99919.53;5174834;27;20585;-49
2022/10/27 03:56:47;;;;;;;5.63;2.70;;;;;;;10.66;100.00;99935.13;5174517;27;20046;-48
2022/10/27 03:59:14;;;;;;;4.40;2.50;;;;;;;10.75;100.00;99936.59;5174554;27;20048;-47
2022/10/27 04:01:41;;;;;;;5.28;2.60;;;;;;;10.86;100.00;99958.03;5174148;27;20046;-48
2022/10/27 04:04:10;;;;;;;4.45;2.63;;;;;;;10.81;100.00;99975.56;5174680;27;20627;-49
2022/10/27 04:06:36;;;;;;;3.60;2.60;;;;;;;10.72;100.00;99978.41;5174853;27;20048;-48
2022/10/27 04:09:03;;;;;;;7.60;2.38;;;;;;;10.76;100.00;99984.00;5174230;27;20046;-48
2022/10/27 04:11:29;;;;;;;6.45;2.60;;;;;;;10.80;100.00;99980.25;5174279;27;20511;-48
2022/10/27 04:13:55;;;;;;;3.85;2.83;;;;;;;10.74;100.00;99981.63;5174196;27;20057;-49
2022/10/27 04:16:22;;;;;;;7.03;2.63;;;;;;;10.57;100.00;99990.91;5174186;27;20098;-48
2022/10/27 04:18:48;;;;;;;7.53;2.55;;;;;;;10.77;100.00;99980.16;5174110;27;20096;-48
2022/10/27 04:21:14;;;;;;;7.90;2.65;;;;;;;10.86;100.00;99977.25;5174278;27;20043;-48
2022/10/27 04:23:41;;;;;;;7.35;2.72;;;;;;;10.84;100.00;99983.88;5174280;27;20045;-48
2022/10/27 04:26:07;;;;;;;7.82;2.30;;;;;;;10.88;100.00;100005.16;5174057;27;20092;-48
2022/10/27 04:28:34;;;;;;;5.75;2.83;;;;;;;11.01;100.00;100014.94;5173763;27;20053;-48
2022/10/27 04:31:00;;;;;;;9.50;2.90;;;;;;;10.97;100.00;100012.09;5173822;27;20046;-47
2022/10/27 04:33:27;;;;;;;4.38;2.60;;;;;;;10.91;100.00;100035.44;5174037;27;20049;-49
2022/10/27 04:35:53;;;;;;;7.22;3.20;;;;;;;10.97;100.00;100036.00;5173821;27;20133;-47
2022/10/27 04:38:19;;;;;;;7.18;3.00;;;;;;;11.06;100.00;100040.22;5174098;27;20054;-48
2022/10/27 04:40:45;;;;;;;7.80;3.05;;;;;;;10.94;100.00;100042.16;5173580;27;20080;-49
2022/10/27 04:43:11;;;;;;;5.35;3.05;;;;;;;10.75;100.00;100040.81;5173776;27;20046;-52
2022/10/27 04:45:38;;;;;;;11.75;4.60;;;;;;;10.97;100.00;100014.03;5173212;27;20129;-51
2022/10/27 04:48:04;;;;;;;8.48;3.47;;;;;;;10.95;100.00;100030.84;5173766;27;20050;-48
2022/10/27 04:50:31;;;;;;;5.28;2.95;;;;;;;10.98;100.00;100018.38;5173199;27;20049;-49
2022/10/27 04:52:59;;;;;;;9.23;3.70;;;;;;;10.86;100.00;100021.94;5173627;27;20085;-51
2022/10/27 04:55:26;;;;;;;9.07;4.53;;;;;;;10.99;100.00;100012.53;5173276;27;20056;-51
2022/10/27 04:57:53;;;;;;;8.18;3.70;;;;;;;11.06;100.00;100015.50;5171982;27;20077;-51
2022/10/27 05:00:20;;;;;;;12.13;4.93;;;;;;;10.79;100.00;100040.91;5173004;27;20077;-51
2022/10/27 05:02:52;;;;;;;7.78;3.55;;;;;;;11.00;100.00;100030.63;5173207;27;20480;-55
2022/10/27 05:05:18;;;;;;;9.65;4.40;;;;;;;10.94;100.00;100033.94;5173398;27;20042;-53
2022/10/27 05:07:51;;;;;;;8.57;4.78;;;;;;;11.03;100.00;100027.19;5173079;27;20050;-50
2022/10/27 05:10:17;;;;;;;7.18;3.90;;;;;;;11.05;100.00;100032.31;5173146;27;20081;-51
2022/10/27 05:12:44;;;;;;;6.82;3.28;;;;;;;11.01;100.00;100039.63;5173244;27;20046;-51
2022/10/27 05:15:10;;;;;;;10.23;3.55;;;;;;;11.01;100.00;100045.13;5173224;27;20501;-54
2022/10/27 05:17:42;;;;;;;10.40;4.00;;;;;;;11.03;100.00;100060.09;5211497;27;20122;-51
2022/10/27 05:20:09;;;;;;;5.75;3.10;;;;;;;11.07;100.00;100058.25;5189774;27;20042;-52
2022/10/27 05:22:36;;;;;;;8.63;3.55;;;;;;;11.17;100.00;100065.22;5189955;27;20054;-50
2022/10/27 05:25:04;;;;;;;4.53;3.00;;;;;;;11.17;100.00;100061.69;5189778;27;20141;-51
2022/10/27 05:27:30;;;;;;;5.30;3.58;;;;;;;11.20;100.00;100053.53;5189601;27;20110;-55
2022/10/27 05:29:57;;;;;;;7.22;3.72;;;;;;;11.17;100.00;100069.91;5189716;27;20088;-52
2022/10/27 05:32:23;;;;;;;7.82;3.85;;;;;;;11.15;100.00;100072.19;5189947;27;20056;-52
2022/10/27 05:34:50;;;;;;;4.70;2.90;;;;;;;11.17;100.00;100084.44;5189795;27;20540;-51
2022/10/27 05:37:16;;;;;;;4.97;3.20;;;;;;;11.28;100.00;100092.97;5189601;27;20347;-50
2022/10/27 05:39:43;;;;;;;5.32;2.42;;;;;;;11.11;100.00;100104.22;5189920;27;20046;-50
2022/10/27 05:42:09;;;;;;;3.85;2.85;;;;;;;11.24;100.00;100103.06;5189750;27;20154;-51
2022/10/27 05:44:35;;;;;;;7.60;2.65;;;;;;;11.30;100.00;100109.91;5189341;27;20050;-53
2022/10/27 05:47:01;;;;;;;12.18;3.55;;;;;;;11.22;100.00;100130.03;5189353;27;20061;-53
2022/10/27 05:49:28;;;;;;;8.43;2.30;;;;;;;11.34;100.00;100138.25;5189178;27;20046;-51
2022/10/27 05:51:54;;;;;;;4.72;3.38;;;;;;;11.29;100.00;100149.47;5189222;27;20046;-53
2022/10/27 05:54:21;;;;;;;5.75;2.63;;;;;;;11.31;100.00;100158.97;5189045;27;20050;-52
2022/10/27 05:56:49;;;;;;;5.05;2.38;;;;;;;11.36;100.00;100154.38;5189176;27;20057;-51
2022/10/27 05:59:15;;;;;;;5.75;2.10;;;;;;;11.44;100.00;100162.50;5189125;27;20523;-51
2022/10/27 06:01:41;;;;;;;4.60;2.20;;;;;;;11.46;100.00;100181.34;5189264;27;20132;-52
2022/10/27 06:04:08;;;;;;;6.85;2.70;;;;;;;11.36;100.00;100187.31;5189136;27;20076;-53
2022/10/27 06:06:34;;;;;;;8.68;4.28;;;;;;;11.39;100.00;100184.69;5189208;27;20053;-52
2022/10/27 06:09:01;;;;;;;3.90;2.42;;;;;;;11.50;100.00;100176.78;5188970;27;20045;-51
2022/10/27 06:11:27;;;;;;;3.75;1.83;;;;;;;11.47;100.00;100192.00;5189179;27;20125;-50
2022/10/27 06:13:54;;;;;;;6.35;2.45;;;;;;;11.58;100.00;100199.78;5188929;27;20042;-54
2022/10/27 06:16:21;;;;;;;8.98;2.10;;;;;;;11.54;100.00;100211.44;5188891;27;20054;-53
2022/10/27 06:18:47;;;;;;;6.03;1.85;;;;;;;11.58;100.00;100217.03;5188743;27;20137;-51
2022/10/27 06:21:13;;;;;;;3.97;2.22;;;;;;;11.54;100.00;100222.44;5188731;27;20058;-53
2022/10/27 06:23:40;;;;;;;3.28;2.63;;;;;;;11.47;100.00;100226.91;5188700;27;20125;-54
2022/10/27 06:26:09;;;;;;;3.88;2.20;;;;;;;11.34;100.00;100220.63;5188548;27;20524;-51
2022/10/27 06:28:36;;;;;;;2.65;2.15;;;;;;;11.32;100.00;100209.16;5177880;27;20053;-51
2022/10/27 06:31:02;;;;;;;4.20;1.95;;;;;;;11.36;100.00;100198.31;5174598;27;20094;-51
2022/10/27 06:33:28;;;;;;;7.72;4.03;;;;;;;11.40;100.00;100182.75;5174752;27;20081;-51
2022/10/27 06:35:55;;;;;;;4.05;2.92;;;;;;;11.48;100.00;100177.13;5174351;27;20098;-52
2022/10/27 06:38:21;;;;;;;7.72;3.05;;;;;;;11.52;100.00;100190.97;5174708;27;20081;-51
2022/10/27 06:40:47;;;;;;;6.38;1.90;;;;;;;11.60;100.00;100178.25;5174576;27;20413;-52
2022/10/27 06:43:14;;;;;;;4.82;2.25;;;;;;;11.68;100.00;100174.56;5174511;27;20054;-53
2022/10/27 06:45:40;;;;;;;3.85;2.15;;;;;;;11.85;100.00;100177.06;5174449;27;20424;-52
2022/10/27 06:48:09;;;;;;;3.90;2.63;;;;;;;11.90;100.00;100181.53;5174189;27;20046;-53
2022/10/27 06:50:36;;;;;;;4.25;2.28;;;;;;;11.95;100.00;100195.81;5174188;27;20054;-54
2022/10/27 06:53:02;;;;;;;4.95;2.30;;;;;;;11.94;100.00;100204.41;5174394;27;20524;-53
2022/10/27 06:55:28;;;;;;;6.03;2.25;;;;;;;11.88;100.00;100217.56;5174324;27;20046;-52
2022/10/27 06:57:55;;;;;;;3.53;2.08;;;;;;;12.00;100.00;100220.31;5174152;27;20094;-51
2022/10/27 07:00:22;;;;;;;4.13;2.80;;;;;;;12.13;100.00;100225.72;5174184;27;20042;-56
2022/10/27 07:02:49;;;;;;;9.02;2.67;;;;;;;12.21;100.00;100231.09;5174297;27;20057;-55
2022/10/27 07:05:16;;;;;;;10.85;2.92;;;;;;;12.62;100.00;100234.56;5174332;27;20054;-53
2022/10/27 07:07:45;;;;;;;2.95;1.98;;;;;;;12.92;100.00;100262.47;5174000;27;20541;-54
2022/10/27 07:10:12;;;;;;;2.30;1.67;;;;;;;12.98;100.00;100254.75;5174092;27;20053;-52
2022/10/27 07:12:38;;;;;;;7.15;2.90;;;;;;;12.97;100.00;100250.41;5173978;27;20102;-51
2022/10/27 07:15:05;;;;;;;4.55;2.47;;;;;;;12.92;100.00;100231.41;5173999;27;20526;-50
2022/10/27 07:17:32;;;;;;;3.97;2.00;;;;;;;13.02;100.00;100232.81;5173574;27;20085;-52
2022/10/27 07:19:58;;;;;;;3.17;1.83;;;;;;;12.94;100.00;100229.91;5173928;27;20050;-52
2022/10/27 07:22:24;;;;;;;2.10;1.70;;;;;;;12.83;100.00;100233.53;5173691;27;20137;-53
2022/10/27 07:24:50;;;;;;;12.68;7.63;;;;;;;12.78;100.00;100225.53;5173870;27;20050;-53
2022/10/27 07:27:17;;;;;;;36.30;15.13;;;;;;;12.78;100.00;100214.53;5173792;27;20054;-51
2022/10/27 07:29:43;;;;;;;43.13;20.17;;;;;;;12.85;100.00;100214.72;5173606;27;20042;-53
2022/10/27 07:32:10;;;;;;;8.25;3.58;;;;;;;13.01;100.00;100206.47;5173821;27;20137;-51
2022/10/27 07:34:36;;;;;;;9.02;5.00;;;;;;;12.90;100.00;100175.94;5173616;27;20090;-51
2022/10/27 07:37:03;;;;;;;2.97;2.10;;;;;;;13.19;100.00;100136.91;5173634;27;20515;-53
2022/10/27 07:39:29;;;;;;;2.72;2.15;;;;;;;13.37;100.00;100100.72;5172280;27;20050;-51
2022/10/27 07:41:55;;;;;;;6.78;1.05;;;;;;;13.54;100.00;100033.41;5173292;27;20483;-54
2022/10/27 07:44:21;;;;;;;1.73;1.27;;;;;;;13.76;100.00;99930.69;5173314;27;20421;-51
2022/10/27 07:46:47;;;;;;;3.97;1.55;;;;;;;13.54;100.00;99846.88;5173367;27;20050;-51
2022/10/27 07:49:14;;;;;;;2.55;1.00;;;;;;;13.68;100.00;99780.19;5173516;27;20046;-51
2022/10/27 07:51:41;;;;;;;1.23;1.13;;;;;;;13.62;100.00;99694.28;5173406;27;20082;-51
2022/10/27 07:54:07;;;;;;;1.10;1.00;;;;;;;14.05;100.00;99639.72;5173568;27;20515;-52
2022/10/27 07:56:35;;;;;;;2.15;1.33;;;;;;;14.32;100.00;99559.63;5173271;27;20109;-52
2022/10/27 07:59:01;;;;;;;4.22;1.75;;;;;;;14.57;100.00;99463.31;5173695;27;20544;-50
2022/10/27 08:01:28;;;;;;;1.00;0.95;;;;;;;14.53;100.00;99330.88;5173407;27;20159;-54
2022/10/27 08:03:54;;;;;;;3.45;1.10;;;;;;;14.44;100.00;99335.13;5173318;27;20088;-51
2022/10/27 08:06:20;;;;;;;1.10;1.00;;;;;;;14.74;100.00;99299.03;5173149;27;20056;-51
2022/10/27 08:08:47;;;;;;;3.53;1.60;;;;;;;14.50;100.00;99264.63;5173242;27;20046;-51
2022/10/27 08:11:13;;;;;;;3.67;1.20;;;;;;;14.29;100.00;99303.91;5172995;27;20049;-54
2022/10/27 08:13:40;;;;;;;2.25;1.40;;;;;;;14.87;100.00;99245.03;5173201;27;20183;-54
2022/10/27 08:16:07;;;;;;;1.90;1.30;;;;;;;15.06;100.00;99197.75;5173107;27;20050;-50
2022/10/27 08:18:33;;;;;;;1.65;1.50;;;;;;;15.14;100.00;99148.03;5172914;27;20081;-53
2022/10/27 08:20:59;;;;;;;3.88;2.15;;;;;;;14.58;100.00;99235.91;5172871;27;20093;-51
2022/10/27 08:23:25;;;;;;;2.75;1.15;;;;;;;14.70;100.00;99240.28;5172885;27;20061;-54
2022/10/27 08:25:53;;;;;;;7.38;3.47;;;;;;;14.52;100.00;99240.22;5172919;27;20142;-50
2022/10/27 08:28:19;;;;;;;3.13;2.03;;;;;;;14.57;100.00;99282.00;5172569;27;20102;-50
2022/10/27 08:30:45;;;;;;;2.95;1.60;;;;;;;14.33;100.00;99352.41;5172889;27;20042;-51
2022/10/27 08:33:12;;;;;;;5.25;1.25;;;;;;;13.95;100.00;99370.25;5172572;27;20561;-54
2022/10/27 08:35:40;;;;;;;2.75;1.50;;;;;;;13.67;100.00;99505.03;5172672;27;20046;-52
2022/10/27 08:38:07;;;;;;;4.38;1.20;;;;;;;13.97;100.00;99471.88;5172569;27;20061;-50
2022/10/27 08:40:42;;;;;;;2.38;1.40;;;;;;;13.63;100.00;99455.44;5172565;27;20129;-50
2022/10/27 08:43:26;;;;;;;2.40;1.35;;;;;;;13.89;100.00;99543.47;5172494;27;20382;-49
2022/10/27 08:46:01;;;;;;;2.53;1.50;;;;;;;13.83;100.00;99506.41;5172436;27;20504;-49
2022/10/27 08:48:28;;;;;;;5.53;2.10;;;;;;;13.79;100.00;99560.66;5172146;27;20089;-49
2022/10/27 08:50:55;;;;;;;1.48;1.38;;;;;;;13.95;100.00;99422.63;5171879;27;20133;-49
2022/10/27 08:53:26;;;;;;;2.05;1.50;;;;;;;14.27;100.00;99391.78;5172552;27;20083;-52
2022/10/27 08:55:57;;;;;;;3.08;1.60;;;;;;;13.91;100.00;99328.13;5172342;27;20168;-52
2022/10/27 08:58:35;;;;;;;2.25;1.00;;;;;;;14.33;100.00;99406.78;5172455;27;20081;-49
2022/10/27 09:01:11;;;;;;;11.07;1.85;;;;;;;14.32;100.00;99427.25;5172047;27;20046;-49
2022/10/27 09:03:54;;;;;;;2.28;1.70;;;;;;;14.39;100.00;99374.09;5172285;27;20046;-53
2022/10/27 09:06:25;;;;;;;14.45;2.00;;;;;;;13.79;100.00;99398.09;5172215;27;20089;-53
2022/10/27 09:09:00;;;;;;;4.45;1.50;;;;;;;14.26;100.00;99470.13;5172342;27;20129;-53
2022/10/27 09:11:36;;;;;;;3.53;1.48;;;;;;;14.17;100.00;99500.00;5172030;27;20102;-51
2022/10/27 09:14:19;;;;;;;2.22;1.50;;;;;;;14.08;100.00;99414.88;5172069;27;20146;-51
2022/10/27 09:16:50;;;;;;;8.60;2.00;;;;;;;13.67;100.00;99447.19;5172205;27;20557;-50
2022/10/27 09:19:22;;;;;;;3.00;1.58;;;;;;;13.85;100.00;99426.09;5172039;27;20062;-50
2022/10/27 09:21:51;;;;;;;3.20;1.83;;;;;;;13.87;100.00;99440.28;5172013;27;20136;-51
2022/10/27 09:24:20;;;;;;;3.88;1.83;;;;;;;13.80;100.00;99443.78;5172133;27;20052;-51
2022/10/27 09:26:48;;;;;;;4.95;1.98;;;;;;;13.62;100.00;99506.16;5171959;27;20055;-51
2022/10/27 09:29:19;;;;;;;2.92;1.67;;;;;;;13.75;100.00;99482.69;5172068;27;20088;-50
2022/10/27 09:31:50;;;;;;;3.70;1.80;;;;;;;13.81;100.00;99514.25;5172176;27;20050;-51
2022/10/27 09:34:21;;;;;;;12.40;2.45;;;;;;;13.72;100.00;99544.06;5171820;27;20046;-51
2022/10/27 09:36:48;;;;;;;6.95;1.88;;;;;;;13.42;100.00;99530.31;5171679;27;20084;-51
2022/10/27 09:39:14;;;;;;;5.25;2.10;;;;;;;13.18;100.00;99576.41;5171703;27;20056;-51
2022/10/27 09:41:41;;;;;;;3.05;1.30;;;;;;;13.26;100.00;99648.13;5171849;27;20087;-52
2022/10/27 09:44:18;;;;;;;5.72;1.80;;;;;;;12.91;100.00;99657.41;5171801;27;20057;-50
2022/10/27 09:46:50;;;;;;;10.82;1.75;;;;;;;12.92;100.00;99700.25;5171739;27;20062;-52
2022/10/27 09:49:18;;;;;;;7.63;1.60;;;;;;;12.85;100.00;99783.47;5171819;27;20347;-51
2022/10/27 09:51:49;;;;;;;2.28;1.30;;;;;;;13.07;100.00;99775.63;5172054;27;20043;-51
2022/10/27 09:54:29;;;;;;;9.02;1.98;;;;;;;12.95;100.00;99799.38;5171562;27;20057;-51
2022/10/27 09:57:02;;;;;;;5.40;2.08;;;;;;;13.03;100.00;99807.75;5171667;27;20057;-50
2022/10/27 09:59:29;;;;;;;4.45;1.83;;;;;;;13.05;100.00;99855.78;5171338;27;20085;-50
2022/10/27 10:01:58;;;;;;;6.20;1.95;;;;;;;12.98;100.00;99882.41;5171398;27;20082;-51
2022/10/27 10:04:28;;;;;;;9.75;2.00;;;;;;;12.80;100.00;99896.59;5174814;27;20046;-51
2022/10/27 10:06:55;;;;;;;4.72;1.50;;;;;;;13.06;100.00;99948.25;5174975;27;20058;-50
2022/10/27 10:09:24;;;;;;;4.82;1.75;;;;;;;13.17;100.00;99932.72;5175168;27;20056;-51
2022/10/27 10:11:51;;;;;;;3.22;1.63;;;;;;;13.16;100.00;99867.81;5174997;27;20042;-49
2022/10/27 10:14:22;;;;;;;6.15;1.80;;;;;;;13.16;100.00;99864.25;5175053;27;20042;-52
2022/10/27 10:16:50;;;;;;;4.82;1.90;;;;;;;13.10;100.00;99865.72;5174644;27;20076;-51
2022/10/27 10:19:18;;;;;;;8.52;1.95;;;;;;;13.23;100.00;99855.31;5175039;27;20141;-50
2022/10/27 10:21:48;;;;;;;8.63;2.28;;;;;;;13.05;100.00;99850.28;5174637;27;20373;-52
2022/10/27 10:24:18;;;;;;;4.32;1.55;;;;;;;12.99;100.00;99785.69;5174624;27;20469;-54
2022/10/27 10:26:51;;;;;;;2.15;1.40;;;;;;;13.02;100.00;99715.34;5175081;27;20154;-53
2022/10/27 10:29:26;;;;;;;3.65;2.53;;;;;;;13.02;100.00;99663.84;5174611;27;20502;-51
2022/10/27 10:32:07;;;;;;;5.03;1.73;;;;;;;13.19;100.00;99602.78;5174597;27;20413;-51
2022/10/27 10:34:34;;;;;;;2.22;1.83;;;;;;;13.40;100.00;99618.06;5174429;27;20056;-51
2022/10/27 10:37:01;;;;;;;4.85;1.42;;;;;;;13.43;100.00;99531.94;5174414;27;20042;-54
2022/10/27 10:39:29;;;;;;;5.22;1.55;;;;;;;13.65;100.00;99453.06;5174346;27;20049;-54
2022/10/27 10:42:13;;;;;;;4.70;1.20;;;;;;;13.50;100.00;99328.19;5174840;27;20061;-51
2022/10/27 10:44:39;;;;;;;3.65;1.25;;;;;;;13.78;100.00;99231.19;5174468;27;20485;-51
2022/10/27 10:47:21;;;;;;;1.75;1.17;;;;;;;13.63;100.00;99160.66;5174515;27;20169;-54
2022/10/27 10:49:51;;;;;;;1.17;1.08;;;;;;;13.69;100.00;99163.81;5174557;27;20046;-52
2022/10/27 10:52:21;;;;;;;2.90;1.88;;;;;;;13.81;100.00;99186.31;5174288;27;20057;-50
2022/10/27 10:54:48;;;;;;;11.48;2.45;;;;;;;13.77;100.00;99162.69;5174464;27;20653;-51
2022/10/27 10:57:26;;;;;;;3.90;1.98;;;;;;;13.80;100.00;99200.50;5174198;27;20066;-50
2022/10/27 10:59:55;;;;;;;5.55;1.20;;;;;;;13.72;100.00;99213.44;5174036;27;20046;-51
2022/10/27 11:02:27;;;;;;;5.13;2.25;;;;;;;13.67;100.00;99226.78;5173963;27;20137;-50
2022/10/27 11:04:55;;;;;;;4.18;1.70;;;;;;;13.57;100.00;99267.66;5174308;27;20073;-52
2022/10/27 11:07:24;;;;;;;8.43;2.85;;;;;;;13.55;100.00;99391.19;5173983;27;20057;-53
2022/10/27 11:09:57;;;;;;;7.03;2.88;;;;;;;13.75;100.00;99355.16;5173954;27;20046;-50
2022/10/27 11:12:29;;;;;;;8.73;1.65;;;;;;;13.72;100.00;99303.56;5174233;27;20049;-51
2022/10/27 11:15:00;;;;;;;1.80;1.08;;;;;;;13.78;100.00;99233.94;5173809;27;20050;-51
2022/10/27 11:17:28;;;;;;;2.38;1.38;;;;;;;13.73;100.00;99255.53;5174186;27;20061;-49
2022/10/27 11:19:56;;;;;;;3.90;1.17;;;;;;;13.70;100.00;99294.91;5173862;27;20073;-53
2022/10/27 11:22:24;;;;;;;4.88;1.75;;;;;;;13.64;100.00;99399.16;5174333;27;20050;-53
2022/10/27 11:24:55;;;;;;;14.02;1.33;;;;;;;13.62;100.00;99409.75;5173944;27;20104;-50
2022/10/27 11:27:26;;;;;;;9.77;1.50;;;;;;;13.60;100.00;99428.63;5173818;27;20081;-50
2022/10/27 11:30:02;;;;;;;5.30;1.50;;;;;;;13.54;100.00;99461.22;5173592;27;20052;-51